Terminal Aerodrome Forecast
Issued by NWS

Home | Current Version | Previous Version | Text Only | Print | Product List | Glossary On
Versions: 1 2 3 4 5 6 7 8 9 10 11 12 13 14 15
000
FTUS44 KBMX 190800 AAA
TAFMGM
TAF AMD
KMGM 190805Z 1908/2006 35011KT 6SM -SHRA BR BKN050 OVC080
     FM191300 01012G22KT P6SM OVC025
     FM191800 01012G22KT P6SM SCT040
     FM200000 03006KT P6SM SCT040=

USA.gov is the U.S. government's official web portal to all federal, state and local government web resources and services.